Terminal Aerodrome Forecast
Issued by NWS

Home | Current Version | Previous Version | Graphics & Text | Print | Product List | Glossary On
Versions: 1 2 3 4 5 6 7 8 9 10 11 12 13
960
FTUS43 KBIS 181122
TAFJMS
TAF
KJMS 181122Z 1812/1912 05006KT P6SM OVC070
     FM182000 02010KT P6SM BKN200
     FM190000 36007KT P6SM BKN250=

USA.gov is the U.S. government's official web portal to all federal, state and local government web resources and services.